createdAt,value
2022-12-09T00:00:38.360Z,58.70
2022-12-09T00:05:41.941Z,49.47
2022-12-09T00:10:45.070Z,63.73
2022-12-09T00:15:47.575Z,80.77
2022-12-09T00:20:50.123Z,58.93
2022-12-09T00:25:52.506Z,79.13
2022-12-09T00:30:58.659Z,89.67
2022-12-09T00:36:20.112Z,57.70
2022-12-09T00:41:23.120Z,45.13
2022-12-09T00:46:26.837Z,52.77
2022-12-09T00:51:29.308Z,79.03
2022-12-09T00:56:32.043Z,96.60
2022-12-09T01:01:35.537Z,76.23
2022-12-09T01:06:38.672Z,66.00
2022-12-09T01:11:41.220Z,56.03
2022-12-09T01:16:44.040Z,50.33
2022-12-09T01:21:46.769Z,46.73
2022-12-09T01:26:49.558Z,37.07
2022-12-09T01:31:53.844Z,42.53
2022-12-09T01:36:56.386Z,44.93
2022-12-09T01:42:02.035Z,36.47
2022-12-09T01:47:04.750Z,50.03
2022-12-09T01:52:19.086Z,42.80
2022-12-09T01:57:22.389Z,40.17
2022-12-09T02:02:28.769Z,41.63
2022-12-09T02:07:32.809Z,40.70
2022-12-09T02:12:54.524Z,33.60
2022-12-09T02:18:01.930Z,35.63
2022-12-09T02:23:11.743Z,35.53
2022-12-09T02:28:42.154Z,34.97
2022-12-09T02:34:03.770Z,42.13
2022-12-09T02:39:07.931Z,41.87
2022-12-09T02:44:21.150Z,43.60
2022-12-09T02:49:26.837Z,37.73
2022-12-09T02:54:33.309Z,40.00
2022-12-09T02:59:35.881Z,47.97
2022-12-09T03:04:41.389Z,53.87
2022-12-09T03:09:52.261Z,38.37
2022-12-09T03:14:57.984Z,38.27
2022-12-09T03:20:26.467Z,42.90
2022-12-09T03:25:34.442Z,40.57
2022-12-09T03:30:41.208Z,48.83
2022-12-09T03:35:50.370Z,62.50
2022-12-09T03:41:17.255Z,54.77
2022-12-09T03:46:21.558Z,57.70
2022-12-09T03:51:56.653Z,52.17
2022-12-09T03:56:59.554Z,46.30
2022-12-09T04:02:04.038Z,42.50
2022-12-09T04:07:07.613Z,44.33
2022-12-09T04:12:11.044Z,46.30
2022-12-09T04:17:13.599Z,46.97
2022-12-09T04:22:16.343Z,51.73
2022-12-09T04:27:18.985Z,43.67
2022-12-09T04:32:22.301Z,47.33
2022-12-09T04:37:25.114Z,52.33
2022-12-09T04:42:29.133Z,59.10
2022-12-09T04:47:34.433Z,37.97
2022-12-09T04:52:36.909Z,57.47
2022-12-09T04:57:39.378Z,43.13
2022-12-09T05:02:42.175Z,36.33
2022-12-09T05:07:45.083Z,41.13
2022-12-09T05:12:48.605Z,53.37
2022-12-09T05:17:51.273Z,38.80
2022-12-09T05:22:54.395Z,41.80
2022-12-09T05:27:56.885Z,45.03
2022-12-09T05:32:59.378Z,39.10
2022-12-09T05:38:02.319Z,46.20
2022-12-09T05:43:05.036Z,52.00
2022-12-09T05:48:07.977Z,55.43
2022-12-09T05:53:11.152Z,55.07
2022-12-09T05:58:13.737Z,52.50
2022-12-09T06:03:16.927Z,58.13
2022-12-09T06:08:19.718Z,52.27
2022-12-09T06:13:22.837Z,58.93
2022-12-09T06:18:25.579Z,123.13
2022-12-09T06:23:28.329Z,110.63
2022-12-09T06:28:31.457Z,103.13
2022-12-09T06:39:03.165Z,78.10
2022-12-09T06:44:19.870Z,77.63
2022-12-09T06:49:24.217Z,75.60
2022-12-09T06:54:27.328Z,82.00
2022-12-09T06:59:30.543Z,63.30
2022-12-09T07:04:33.274Z,66.23
2022-12-09T07:09:36.180Z,60.77
2022-12-09T07:14:39.376Z,76.77
2022-12-09T07:19:41.900Z,73.60
2022-12-09T07:24:45.181Z,68.97
2022-12-09T07:29:48.036Z,76.13
2022-12-09T07:34:51.026Z,72.60
2022-12-09T07:39:53.959Z,86.93
2022-12-09T07:44:56.525Z,92.73
2022-12-09T07:50:06.492Z,79.77
2022-12-09T07:55:10.705Z,85.37
2022-12-09T08:00:14.079Z,88.73
2022-12-09T08:05:17.441Z,91.77
2022-12-09T08:10:20.701Z,115.67
2022-12-09T08:15:23.808Z,98.73
2022-12-09T08:20:29.457Z,118.07
2022-12-09T08:25:32.329Z,100.93
2022-12-09T08:30:36.947Z,91.10
2022-12-09T08:35:39.841Z,108.93
2022-12-09T08:40:42.462Z,106.47
2022-12-09T08:45:45.192Z,82.60
2022-12-09T08:50:48.026Z,88.93
2022-12-09T08:55:50.913Z,84.50
2022-12-09T09:00:53.631Z,80.43
2022-12-09T09:06:09.524Z,72.57
2022-12-09T09:11:19.584Z,115.90
2022-12-09T09:16:24.787Z,120.53
2022-12-09T09:21:27.716Z,80.27
2022-12-09T09:26:30.338Z,85.23
2022-12-09T09:31:33.441Z,75.37
2022-12-09T09:36:36.200Z,83.90
2022-12-09T09:42:03.228Z,52.03
2022-12-09T09:47:38.531Z,52.87
2022-12-09T09:52:42.799Z,70.77
2022-12-09T09:57:55.650Z,163.77
2022-12-09T10:03:09.482Z,93.57
2022-12-09T10:08:32.276Z,58.30
2022-12-09T10:14:03.887Z,52.80
2022-12-09T10:19:31.962Z,53.80
2022-12-09T10:24:39.982Z,72.60
2022-12-09T10:30:22.461Z,68.40
2022-12-09T10:35:28.908Z,106.50
2022-12-09T10:40:38.854Z,91.83
2022-12-09T10:51:19.688Z,63.13
2022-12-09T10:56:34.281Z,49.43
2022-12-09T11:01:59.554Z,57.70
2022-12-09T11:07:26.137Z,57.10
2022-12-09T11:12:32.041Z,57.97
2022-12-09T11:17:37.574Z,61.27
2022-12-09T11:22:43.324Z,58.43
2022-12-09T11:27:48.922Z,51.67
2022-12-09T11:32:56.916Z,85.83
2022-12-09T11:38:03.769Z,113.93
2022-12-09T11:43:06.355Z,128.00
2022-12-09T11:48:36.009Z,58.40
2022-12-09T11:53:41.571Z,41.07
2022-12-09T11:59:01.024Z,75.90
2022-12-09T12:04:11.322Z,44.87
2022-12-09T12:09:22.671Z,43.17
2022-12-09T12:14:29.173Z,51.30
2022-12-09T12:19:39.991Z,48.70
2022-12-09T12:25:01.519Z,53.77
2022-12-09T12:30:06.880Z,53.50
2022-12-09T12:35:54.070Z,53.03
2022-12-09T12:41:08.378Z,65.93
2022-12-09T12:46:22.553Z,41.23
2022-12-09T12:51:29.449Z,41.27
2022-12-09T12:57:09.732Z,40.57
2022-12-09T13:02:33.927Z,52.90
2022-12-09T13:07:39.039Z,74.27
2022-12-09T13:13:01.585Z,65.07
2022-12-09T13:18:13.206Z,94.40
2022-12-09T13:23:43.291Z,69.40
2022-12-09T13:28:56.311Z,109.93
2022-12-09T13:34:07.549Z,122.07
2022-12-09T13:39:11.967Z,79.57
2022-12-09T13:44:18.949Z,97.20
2022-12-09T13:49:25.302Z,101.10
2022-12-09T13:54:29.232Z,112.30
2022-12-09T13:59:40.700Z,182.60
2022-12-09T14:04:58.740Z,88.00
2022-12-09T14:10:01.548Z,81.87
2022-12-09T14:15:25.071Z,103.30
2022-12-09T14:20:34.645Z,87.57
2022-12-09T14:25:37.229Z,111.80
2022-12-09T14:30:55.011Z,141.23
2022-12-09T14:36:03.116Z,150.27
2022-12-09T14:41:28.767Z,95.43
2022-12-09T14:46:36.910Z,109.37
2022-12-09T14:51:44.595Z,127.67
2022-12-09T14:56:50.497Z,93.90
2022-12-09T15:02:23.832Z,72.60
2022-12-09T15:07:32.745Z,71.80
2022-12-09T15:12:43.921Z,78.73
2022-12-09T15:17:54.649Z,88.13
2022-12-09T15:23:22.815Z,90.17
2022-12-09T15:28:27.426Z,92.50
2022-12-09T15:33:37.916Z,83.17
2022-12-09T15:38:54.894Z,93.43
2022-12-09T15:44:05.583Z,85.07
2022-12-09T15:49:11.427Z,133.97
2022-12-09T15:54:19.739Z,91.30
2022-12-09T15:59:29.201Z,140.90
2022-12-09T16:04:38.058Z,95.20
2022-12-09T16:09:41.254Z,77.50
2022-12-09T16:14:44.441Z,97.37
2022-12-09T16:19:46.899Z,89.50
2022-12-09T16:25:14.298Z,73.40
2022-12-09T16:30:23.649Z,84.30
2022-12-09T16:35:28.110Z,117.40
2022-12-09T16:40:32.602Z,92.40
2022-12-09T16:45:38.704Z,89.87
2022-12-09T16:51:04.628Z,89.60
2022-12-09T16:56:17.056Z,107.10
2022-12-09T17:01:22.696Z,74.47
2022-12-09T17:06:25.299Z,99.47
2022-12-09T17:11:27.693Z,131.43
2022-12-09T17:16:30.205Z,104.67
2022-12-09T17:21:32.819Z,197.67
2022-12-09T17:26:35.243Z,78.53
2022-12-09T17:31:38.006Z,99.43
2022-12-09T17:36:40.478Z,106.70
2022-12-09T17:41:43.430Z,129.27
2022-12-09T17:46:45.944Z,94.33
2022-12-09T17:51:48.350Z,406.07
2022-12-09T17:56:50.746Z,186.00
2022-12-09T18:01:53.134Z,127.80
2022-12-09T18:06:55.562Z,120.40
2022-12-09T18:11:58.016Z,127.40
2022-12-09T18:17:01.339Z,175.87
2022-12-09T18:22:03.817Z,168.43
2022-12-09T18:27:06.217Z,126.97
2022-12-09T18:32:09.602Z,124.40
2022-12-09T18:37:12.641Z,112.37
2022-12-09T18:42:15.062Z,175.53
2022-12-09T18:47:17.457Z,191.90
2022-12-09T18:52:19.841Z,152.90
2022-12-09T18:57:26.179Z,171.90
2022-12-09T19:02:31.478Z,112.53
2022-12-09T19:07:33.978Z,220.17
2022-12-09T19:12:47.020Z,261.77
2022-12-09T19:17:50.127Z,115.37
2022-12-09T19:22:52.785Z,153.07
2022-12-09T19:27:55.142Z,288.13
2022-12-09T19:32:58.078Z,119.07
2022-12-09T19:38:01.529Z,134.23
2022-12-09T19:43:04.136Z,147.67
2022-12-09T19:48:07.145Z,97.33
2022-12-09T19:53:09.571Z,104.10
2022-12-09T19:58:12.003Z,87.37
2022-12-09T20:03:14.356Z,81.57
2022-12-09T20:08:16.829Z,98.53
2022-12-09T20:13:19.914Z,129.47
2022-12-09T20:18:22.356Z,103.27
2022-12-09T20:23:24.737Z,78.40
2022-12-09T20:28:27.104Z,89.80
2022-12-09T20:33:29.778Z,119.83
2022-12-09T20:38:32.440Z,84.13
2022-12-09T20:43:39.450Z,97.10
2022-12-09T20:48:42.651Z,148.10
2022-12-09T20:53:46.838Z,127.70
2022-12-09T20:58:51.102Z,91.07
2022-12-09T21:03:54.846Z,149.70
2022-12-09T21:09:04.621Z,99.83
2022-12-09T21:14:07.896Z,128.63
2022-12-09T21:19:15.548Z,196.63
2022-12-09T21:24:18.931Z,131.47
2022-12-09T21:29:23.743Z,111.47
2022-12-09T21:34:30.249Z,93.07
2022-12-09T21:39:33.118Z,92.97
2022-12-09T21:44:35.642Z,93.97
2022-12-09T21:49:38.646Z,101.83
2022-12-09T21:54:41.040Z,97.37
2022-12-09T21:59:43.750Z,97.83
2022-12-09T22:04:46.137Z,108.47
2022-12-09T22:09:49.702Z,101.03
2022-12-09T22:14:52.169Z,115.13
2022-12-09T22:20:22.638Z,160.53
2022-12-09T22:25:17.000Z,111.57
2022-12-09T22:30:19.495Z,119.77
2022-12-09T22:35:22.242Z,141.77
2022-12-09T22:40:24.669Z,134.93
2022-12-09T22:45:26.987Z,146.03
2022-12-09T22:50:29.377Z,116.90
2022-12-09T22:55:33.921Z,106.57
2022-12-09T23:00:36.299Z,102.27
2022-12-09T23:05:38.648Z,113.87
2022-12-09T23:10:41.064Z,111.57
2022-12-09T23:15:43.494Z,97.97
2022-12-09T23:20:48.837Z,108.90
2022-12-09T23:25:51.260Z,111.37
2022-12-09T23:30:53.653Z,110.97
2022-12-09T23:35:56.325Z,146.00
2022-12-09T23:40:58.728Z,129.97
2022-12-09T23:46:02.617Z,140.47
2022-12-09T23:51:25.445Z,140.53
2022-12-09T23:56:29.812Z,127.57
